Time;durP1;ratioP1;P1;durP2;ratioP2;P2;SDS_P1;SDS_P2;PMS_P1;PMS_P2;Temp;Humidity;BMP_temperature;BMP_pressure;BME280_temperature;BME280_humidity;BME280_pressure;Samples;Min_cycle;Max_cycle;Signal;HPM_P1;HPM_P2
2022/10/13 00:02:13;;;;;;;192.93;117.93;;;14.90;99.90;;;;;;6340209;22;20003;-82
2022/10/13 00:04:39;;;;;;;179.48;113.47;;;14.90;99.90;;;;;;6340500;22;20017;-82
2022/10/13 00:07:04;;;;;;;182.43;114.45;;;14.80;99.90;;;;;;6340385;22;19995;-80
2022/10/13 00:09:30;;;;;;;175.82;114.32;;;14.80;99.90;;;;;;6340074;22;19995;-80
2022/10/13 00:11:57;;;;;;;175.70;112.75;;;14.80;99.90;;;;;;6340350;22;19999;-80
2022/10/13 00:14:22;;;;;;;176.95;112.82;;;14.80;99.90;;;;;;6340261;22;20361;-82
2022/10/13 00:16:48;;;;;;;168.70;112.50;;;14.80;99.90;;;;;;6312693;22;20077;-80
2022/10/13 00:19:14;;;;;;;165.85;107.90;;;14.80;99.90;;;;;;6340145;22;19994;-81
2022/10/13 00:21:40;;;;;;;154.63;106.47;;;14.80;99.90;;;;;;6340191;22;20030;-80
2022/10/13 00:24:09;;;;;;;162.30;104.10;;;14.80;99.90;;;;;;6340391;22;20364;-81
2022/10/13 00:26:35;;;;;;;167.98;109.50;;;14.70;99.90;;;;;;6340214;22;20001;-80
2022/10/13 00:29:01;;;;;;;149.23;103.32;;;14.70;99.90;;;;;;6340758;22;20066;-79
2022/10/13 00:31:29;;;;;;;173.77;110.05;;;14.70;99.90;;;;;;6340761;22;20002;-82
2022/10/13 00:33:57;;;;;;;162.23;106.22;;;14.60;99.90;;;;;;6340410;22;20435;-79
2022/10/13 00:36:24;;;;;;;158.52;103.13;;;14.60;99.90;;;;;;6340619;22;19995;-81
2022/10/13 00:38:51;;;;;;;148.30;103.75;;;14.70;99.90;;;;;;6340654;22;20408;-81
2022/10/13 00:41:17;;;;;;;155.13;102.03;;;14.70;99.90;;;;;;6339825;22;20370;-80
2022/10/13 00:43:53;;;;;;;150.02;103.20;;;14.60;99.90;;;;;;6340508;22;20404;-80
2022/10/13 00:46:21;;;;;;;153.13;102.40;;;14.60;99.90;;;;;;6340394;22;20470;-82
2022/10/13 00:48:49;;;;;;;159.25;107.18;;;14.50;99.90;;;;;;6340691;22;20024;-81
2022/10/13 00:51:18;;;;;;;153.57;106.05;;;14.50;99.90;;;;;;6340162;22;19994;-81
2022/10/13 00:53:46;;;;;;;154.07;103.28;;;14.50;99.90;;;;;;6340357;22;19991;-80
2022/10/13 00:56:14;;;;;;;160.20;108.05;;;14.50;99.90;;;;;;6340409;22;19991;-80
2022/10/13 00:58:40;;;;;;;162.77;106.97;;;14.50;99.90;;;;;;6312144;22;20003;-83
2022/10/13 01:01:06;;;;;;;153.88;101.90;;;14.50;99.90;;;;;;6312311;22;20034;-84
2022/10/13 01:03:32;;;;;;;160.32;103.20;;;14.40;99.90;;;;;;6340049;22;20439;-83
2022/10/13 01:06:02;;;;;;;158.15;103.93;;;14.50;99.90;;;;;;6312303;22;20078;-81
2022/10/13 01:08:28;;;;;;;146.80;101.28;;;14.50;99.90;;;;;;6339302;22;19995;-79
2022/10/13 01:11:13;;;;;;;154.70;102.72;;;14.50;99.90;;;;;;6339828;22;20332;-81
2022/10/13 01:13:53;;;;;;;153.45;101.80;;;14.50;99.90;;;;;;6340131;22;19994;-81
2022/10/13 01:16:31;;;;;;;150.60;100.85;;;14.60;99.90;;;;;;6339935;22;19991;-79
2022/10/13 01:19:24;;;;;;;151.65;102.00;;;14.60;99.90;;;;;;6339720;22;19998;-80
2022/10/13 01:22:06;;;;;;;151.25;98.65;;;14.60;99.90;;;;;;6339681;22;20030;-80
2022/10/13 01:25:15;;;;;;;149.68;98.35;;;14.70;99.90;;;;;;6340065;22;19995;-83
2022/10/13 01:27:41;;;;;;;153.98;100.20;;;14.70;99.90;;;;;;6276035;22;20428;-81
2022/10/13 01:30:12;;;;;;;151.15;98.80;;;14.70;99.90;;;;;;6339270;22;19998;-81
2022/10/13 01:32:44;;;;;;;147.00;96.88;;;14.70;99.90;;;;;;6312140;22;20362;-80
2022/10/13 01:35:42;;;;;;;143.35;96.88;;;14.70;99.90;;;;;;6339831;22;20051;-80
2022/10/13 01:38:34;;;;;;;136.68;94.22;;;14.70;99.90;;;;;;6273512;22;20048;-81
2022/10/13 01:41:02;;;;;;;147.25;96.10;;;14.70;99.90;;;;;;6339143;22;20014;-80
2022/10/13 01:43:36;;;;;;;152.77;97.95;;;14.70;99.90;;;;;;6339682;22;20018;-82
2022/10/13 01:46:26;;;;;;;142.57;95.93;;;14.60;99.90;;;;;;6339619;22;19997;-82
2022/10/13 01:48:54;;;;;;;139.48;92.97;;;14.60;99.90;;;;;;6312021;22;20400;-80
2022/10/13 01:51:23;;;;;;;135.52;91.43;;;14.60;99.90;;;;;;6311685;22;20006;-80
2022/10/13 01:53:50;;;;;;;145.18;92.30;;;14.50;99.90;;;;;;6339608;22;20074;-81
2022/10/13 01:56:16;;;;;;;135.32;92.07;;;14.50;99.90;;;;;;6339479;22;20074;-80
2022/10/13 01:58:42;;;;;;;139.50;91.85;;;14.50;99.90;;;;;;6339293;22;20022;-81
2022/10/13 02:01:43;;;;;;;148.43;90.80;;;14.50;99.90;;;;;;6339436;22;20006;-79
2022/10/13 02:04:27;;;;;;;141.15;92.30;;;14.50;99.90;;;;;;6289540;22;19991;-81
2022/10/13 02:07:31;;;;;;;135.10;92.25;;;14.50;99.90;;;;;;6339297;22;19995;-81
2022/10/13 02:10:08;;;;;;;147.55;93.90;;;14.50;99.90;;;;;;6251551;22;20029;-82
2022/10/13 02:12:48;;;;;;;140.98;92.43;;;14.50;99.90;;;;;;6339755;22;20003;-81
2022/10/13 02:15:20;;;;;;;151.25;94.13;;;14.50;99.90;;;;;;6311820;22;19994;-82
2022/10/13 02:17:46;;;;;;;161.23;99.15;;;14.50;99.90;;;;;;6339666;22;19991;-80
2022/10/13 02:20:14;;;;;;;148.55;99.22;;;14.40;99.90;;;;;;6339611;22;19991;-82
2022/10/13 02:22:45;;;;;;;146.60;97.10;;;14.50;99.90;;;;;;6339652;22;19995;-80
2022/10/13 02:25:11;;;;;;;144.23;94.15;;;14.50;99.90;;;;;;6339799;22;19991;-82
2022/10/13 02:27:37;;;;;;;154.05;93.13;;;14.50;99.90;;;;;;6339591;22;19990;-84
2022/10/13 02:30:03;;;;;;;141.77;92.57;;;14.40;99.90;;;;;;6339691;22;20029;-83
2022/10/13 02:32:29;;;;;;;142.85;91.70;;;14.40;99.90;;;;;;6311638;22;20003;-81
2022/10/13 02:34:55;;;;;;;157.63;95.07;;;14.40;99.90;;;;;;6311972;22;20059;-80
2022/10/13 02:37:21;;;;;;;151.20;97.18;;;14.40;99.90;;;;;;6339657;22;19991;-83
2022/10/13 02:39:47;;;;;;;158.82;97.90;;;14.30;99.90;;;;;;6339156;22;20002;-79
2022/10/13 02:42:12;;;;;;;145.40;93.57;;;14.30;99.90;;;;;;6338851;22;20006;-80
2022/10/13 02:44:39;;;;;;;158.40;97.22;;;14.30;99.90;;;;;;6311946;22;20395;-83
2022/10/13 02:47:04;;;;;;;158.30;97.45;;;14.40;99.90;;;;;;6311079;22;20121;-81
2022/10/13 02:49:30;;;;;;;154.82;95.07;;;14.40;99.90;;;;;;6339235;22;20403;-80
2022/10/13 02:51:56;;;;;;;151.55;97.20;;;14.40;99.90;;;;;;6339374;22;19999;-81
2022/10/13 02:54:22;;;;;;;152.52;95.40;;;14.30;99.90;;;;;;6311386;22;20412;-80
2022/10/13 02:56:48;;;;;;;154.65;97.85;;;14.30;99.90;;;;;;6338823;22;20002;-81
2022/10/13 02:59:13;;;;;;;147.52;93.60;;;14.30;99.90;;;;;;6338756;22;20078;-82
2022/10/13 03:01:41;;;;;;;150.40;96.50;;;14.30;99.90;;;;;;6338862;22;20418;-80
2022/10/13 03:04:08;;;;;;;150.60;95.65;;;14.30;99.90;;;;;;6339163;22;19991;-81
2022/10/13 03:06:33;;;;;;;151.27;95.00;;;14.30;99.90;;;;;;6339017;22;20074;-80
2022/10/13 03:08:59;;;;;;;148.05;95.03;;;14.20;99.90;;;;;;6311496;22;20049;-80
2022/10/13 03:11:25;;;;;;;149.20;94.93;;;14.20;99.90;;;;;;6311829;22;20060;-80
2022/10/13 03:13:51;;;;;;;150.35;95.18;;;14.20;99.90;;;;;;6339310;22;20326;-82
2022/10/13 03:16:17;;;;;;;144.85;92.88;;;14.20;99.90;;;;;;6338818;22;20022;-81
2022/10/13 03:18:43;;;;;;;135.75;91.07;;;14.20;99.90;;;;;;6311158;22;19994;-81
2022/10/13 03:21:09;;;;;;;140.30;90.97;;;14.20;99.90;;;;;;6310737;22;20470;-82
2022/10/13 03:23:35;;;;;;;147.63;94.53;;;14.20;99.90;;;;;;6339013;22;19987;-80
2022/10/13 03:26:01;;;;;;;147.65;94.57;;;14.20;99.90;;;;;;6339019;22;19998;-81
2022/10/13 03:28:27;;;;;;;149.77;94.82;;;14.10;99.90;;;;;;6311286;22;20017;-82
2022/10/13 03:31:04;;;;;;;141.65;93.03;;;14.10;99.90;;;;;;6339158;22;20002;-81
2022/10/13 03:33:30;;;;;;;138.32;94.38;;;14.00;99.90;;;;;;6338823;22;19995;-82
2022/10/13 03:36:00;;;;;;;147.80;95.28;;;14.00;99.90;;;;;;6338780;22;20490;-80
2022/10/13 03:38:27;;;;;;;159.27;96.10;;;14.00;99.90;;;;;;6311161;22;20319;-80
2022/10/13 03:40:53;;;;;;;141.02;93.65;;;14.00;99.90;;;;;;6338761;22;20011;-80
2022/10/13 03:43:19;;;;;;;151.40;94.97;;;14.00;99.90;;;;;;6338753;22;20044;-80
2022/10/13 03:45:57;;;;;;;144.95;93.55;;;14.00;99.90;;;;;;6338486;22;20002;-83
2022/10/13 03:48:23;;;;;;;143.13;91.93;;;14.00;99.90;;;;;;6311165;22;20029;-80
2022/10/13 03:50:49;;;;;;;151.10;94.05;;;13.90;99.90;;;;;;6338384;22;20435;-81
2022/10/13 03:53:14;;;;;;;145.55;94.03;;;13.90;99.90;;;;;;6338794;22;19991;-82
2022/10/13 03:55:40;;;;;;;138.73;93.53;;;13.90;99.90;;;;;;6313173;22;20401;-82
2022/10/13 03:58:06;;;;;;;156.15;93.95;;;13.90;99.90;;;;;;6313060;22;19995;-82
2022/10/13 04:00:35;;;;;;;155.68;96.63;;;13.90;99.90;;;;;;6340396;22;20062;-84
2022/10/13 04:03:00;;;;;;;135.02;91.68;;;13.80;99.90;;;;;;6340485;22;20056;-82
2022/10/13 04:05:26;;;;;;;140.90;94.20;;;13.80;99.90;;;;;;6340795;22;19998;-82
2022/10/13 04:07:52;;;;;;;150.02;93.80;;;13.80;99.90;;;;;;6340484;22;20002;-83
2022/10/13 04:10:17;;;;;;;143.77;91.45;;;13.80;99.90;;;;;;6340148;22;19998;-82
2022/10/13 04:12:43;;;;;;;143.25;91.15;;;13.80;99.90;;;;;;6340483;22;20031;-83
2022/10/13 04:15:09;;;;;;;158.38;95.88;;;13.80;99.90;;;;;;6340502;22;19995;-81
2022/10/13 04:17:35;;;;;;;150.95;93.97;;;13.70;99.90;;;;;;6339766;22;20070;-81
2022/10/13 04:20:01;;;;;;;146.18;94.68;;;13.70;99.90;;;;;;6312937;22;20030;-81
2022/10/13 04:22:26;;;;;;;148.27;92.57;;;13.70;99.90;;;;;;6339605;22;20477;-83
2022/10/13 04:24:52;;;;;;;150.82;93.78;;;13.70;99.90;;;;;;6312876;22;20357;-81
2022/10/13 04:27:18;;;;;;;143.57;90.47;;;13.70;99.90;;;;;;6313051;22;19995;-82
2022/10/13 04:29:44;;;;;;;152.10;93.18;;;13.80;99.90;;;;;;6313083;22;20415;-81
2022/10/13 04:32:10;;;;;;;169.20;99.65;;;13.70;99.90;;;;;;6340033;22;19998;-82
2022/10/13 04:34:36;;;;;;;170.18;100.63;;;13.60;99.90;;;;;;6312746;22;20040;-83
2022/10/13 04:37:02;;;;;;;184.98;101.78;;;13.60;99.90;;;;;;6340563;22;20001;-82
2022/10/13 04:39:27;;;;;;;167.35;99.10;;;13.60;99.90;;;;;;6340508;22;19999;-83
2022/10/13 04:41:53;;;;;;;180.45;99.85;;;13.50;99.90;;;;;;6340132;22;19998;-82
2022/10/13 04:44:19;;;;;;;185.93;101.63;;;13.50;99.90;;;;;;6340115;22;20041;-84
2022/10/13 04:46:45;;;;;;;208.32;103.53;;;13.50;99.90;;;;;;6312886;22;20048;-83
2022/10/13 04:49:10;;;;;;;185.90;99.57;;;13.50;99.90;;;;;;6340245;22;19998;-83
2022/10/13 04:51:37;;;;;;;187.98;102.13;;;13.50;99.90;;;;;;6312347;22;19999;-83
2022/10/13 04:54:04;;;;;;;172.40;99.20;;;13.50;99.90;;;;;;6312891;22;20081;-86
2022/10/13 04:56:30;;;;;;;182.73;103.82;;;13.60;99.90;;;;;;6312894;22;19995;-82
2022/10/13 04:58:56;;;;;;;175.55;101.95;;;13.60;99.90;;;;;;6340245;22;20120;-82
2022/10/13 05:01:24;;;;;;;171.95;101.95;;;13.50;99.90;;;;;;6312816;22;20033;-83
2022/10/13 05:03:51;;;;;;;165.27;100.00;;;13.50;99.90;;;;;;6339782;22;20477;-83
2022/10/13 05:06:21;;;;;;;168.60;100.63;;;13.60;99.90;;;;;;6311860;22;19995;-82
2022/10/13 05:08:47;;;;;;;167.80;99.57;;;13.60;99.90;;;;;;6340082;22;20471;-81
2022/10/13 05:11:13;;;;;;;184.10;106.65;;;13.60;99.90;;;;;;6312348;22;20088;-82
2022/10/13 05:13:39;;;;;;;187.50;107.00;;;13.60;99.90;;;;;;6340101;22;20018;-82
2022/10/13 05:16:07;;;;;;;180.35;106.35;;;13.60;99.90;;;;;;6340087;22;19998;-82
2022/10/13 05:18:33;;;;;;;181.02;107.68;;;13.60;99.90;;;;;;6340152;22;19994;-82
2022/10/13 05:21:12;;;;;;;173.50;105.25;;;13.60;99.90;;;;;;6339707;22;19994;-79
2022/10/13 05:23:38;;;;;;;184.82;108.65;;;13.70;99.90;;;;;;6339996;22;19999;-84
2022/10/13 05:26:07;;;;;;;190.55;110.43;;;13.70;99.90;;;;;;6311694;22;19997;-81
2022/10/13 05:28:33;;;;;;;193.52;111.35;;;13.80;99.90;;;;;;6312730;22;20350;-81
2022/10/13 05:31:16;;;;;;;197.45;112.20;;;13.70;99.90;;;;;;6312337;22;20003;-81
2022/10/13 05:33:43;;;;;;;196.15;115.00;;;13.80;99.90;;;;;;6340151;22;19991;-82
2022/10/13 05:36:21;;;;;;;195.80;115.25;;;13.90;99.90;;;;;;6339903;22;19995;-82
2022/10/13 05:38:51;;;;;;;186.23;105.80;;;13.90;99.90;;;;;;6339919;22;19997;-82
2022/10/13 05:41:17;;;;;;;180.77;106.35;;;14.00;99.90;;;;;;6339054;22;20018;-82
2022/10/13 05:43:43;;;;;;;174.80;107.38;;;14.00;99.90;;;;;;6339820;22;19991;-82
2022/10/13 05:46:10;;;;;;;173.50;107.65;;;14.10;99.90;;;;;;6339401;22;19991;-82
2022/10/13 05:48:36;;;;;;;176.32;109.03;;;14.10;99.90;;;;;;6339142;22;19999;-82
2022/10/13 05:51:06;;;;;;;173.23;105.10;;;14.10;99.90;;;;;;6339298;22;19999;-81
2022/10/13 05:53:39;;;;;;;159.10;100.53;;;14.10;99.90;;;;;;6339694;22;20006;-81
2022/10/13 05:56:11;;;;;;;170.27;106.57;;;14.10;99.90;;;;;;6339519;22;20059;-82
2022/10/13 05:58:43;;;;;;;166.80;105.15;;;14.10;99.90;;;;;;6311830;22;20078;-82
2022/10/13 06:01:13;;;;;;;173.52;107.22;;;14.10;99.90;;;;;;6311782;22;20745;-85
2022/10/13 06:03:40;;;;;;;187.82;116.88;;;14.20;99.90;;;;;;6339678;22;20071;-83
2022/10/13 06:06:07;;;;;;;201.73;123.63;;;14.30;99.90;;;;;;6339429;22;20006;-85
2022/10/13 06:08:34;;;;;;;186.50;116.45;;;14.20;99.90;;;;;;6339335;22;19994;-81
2022/10/13 06:11:00;;;;;;;171.65;110.00;;;14.20;99.90;;;;;;6339579;22;20433;-85
2022/10/13 06:13:26;;;;;;;158.20;101.85;;;14.30;99.90;;;;;;6339325;22;19991;-81
2022/10/13 06:15:52;;;;;;;152.23;103.65;;;14.30;99.90;;;;;;6338928;22;19998;-83
2022/10/13 06:18:18;;;;;;;160.13;104.47;;;14.40;99.90;;;;;;6312153;22;20529;-82
2022/10/13 06:20:43;;;;;;;157.88;104.57;;;14.40;99.90;;;;;;6339120;22;20342;-82
2022/10/13 06:23:09;;;;;;;160.63;103.80;;;14.50;99.90;;;;;;6339473;22;20002;-81
2022/10/13 06:25:35;;;;;;;154.85;97.90;;;14.50;99.90;;;;;;6311887;22;20044;-83
2022/10/13 06:28:01;;;;;;;151.75;98.68;;;14.40;99.90;;;;;;6311154;22;20408;-83
2022/10/13 06:30:27;;;;;;;145.77;94.55;;;14.50;99.90;;;;;;6311449;22;20303;-83
2022/10/13 06:32:57;;;;;;;149.88;97.20;;;14.60;99.90;;;;;;6311839;22;20037;-82
2022/10/13 06:35:22;;;;;;;155.35;100.55;;;14.60;99.90;;;;;;6311442;22;19998;-82
2022/10/13 06:37:49;;;;;;;155.57;98.85;;;14.60;99.90;;;;;;6311136;22;19995;-82
2022/10/13 06:40:15;;;;;;;137.77;93.35;;;14.60;99.90;;;;;;6339028;22;20400;-82
2022/10/13 06:42:41;;;;;;;139.98;94.90;;;14.70;99.90;;;;;;6338348;22;20002;-82
2022/10/13 06:45:07;;;;;;;140.90;92.07;;;14.80;99.90;;;;;;6338653;22;19994;-83
2022/10/13 06:47:57;;;;;;;140.38;91.90;;;14.80;99.90;;;;;;6339345;22;19994;-90
2022/10/13 06:50:23;;;;;;;145.32;93.65;;;14.80;99.90;;;;;;6339571;22;20308;-83
2022/10/13 06:52:49;;;;;;;136.00;93.57;;;14.80;99.90;;;;;;6339179;22;19995;-83
2022/10/13 06:55:15;;;;;;;136.50;90.43;;;14.80;99.90;;;;;;6309556;22;19995;-81
2022/10/13 06:57:41;;;;;;;143.25;91.65;;;14.90;99.90;;;;;;6309170;22;20005;-81
2022/10/13 07:00:08;;;;;;;136.95;87.30;;;14.90;99.90;;;;;;6337224;22;19995;-80
2022/10/13 07:02:34;;;;;;;130.13;85.78;;;14.90;99.90;;;;;;6337566;22;20415;-81
2022/10/13 07:04:59;;;;;;;136.38;87.72;;;14.90;99.90;;;;;;6338954;22;19991;-80
2022/10/13 07:07:25;;;;;;;139.50;94.32;;;14.90;99.90;;;;;;6311913;22;20424;-78
2022/10/13 07:09:51;;;;;;;144.10;95.07;;;15.00;99.90;;;;;;6339392;22;20013;-80
2022/10/13 07:12:18;;;;;;;142.65;94.53;;;15.00;99.90;;;;;;6339360;22;20018;-79
2022/10/13 07:14:44;;;;;;;153.02;96.57;;;15.10;99.90;;;;;;6339160;22;19994;-78
2022/10/13 07:17:09;;;;;;;147.18;91.68;;;15.10;99.90;;;;;;6338800;22;20372;-79
2022/10/13 07:19:35;;;;;;;140.27;90.82;;;15.20;99.90;;;;;;6311290;22;20046;-81
2022/10/13 07:22:01;;;;;;;150.45;93.03;;;15.30;99.90;;;;;;6311096;22;20011;-80
2022/10/13 07:24:26;;;;;;;139.10;90.90;;;15.40;99.90;;;;;;6339003;22;20018;-81
2022/10/13 07:26:52;;;;;;;148.52;88.97;;;15.40;99.90;;;;;;6338837;22;19999;-82
2022/10/13 07:29:18;;;;;;;145.45;86.32;;;15.40;99.90;;;;;;6339366;22;19994;-80
2022/10/13 07:31:45;;;;;;;137.68;84.32;;;15.50;99.90;;;;;;6341885;22;20052;-83
2022/10/13 07:34:11;;;;;;;134.20;84.55;;;15.50;99.90;;;;;;6340435;22;20044;-81
2022/10/13 07:36:40;;;;;;;130.30;80.53;;;15.50;99.90;;;;;;6313275;22;20349;-80
2022/10/13 07:39:09;;;;;;;126.28;83.50;;;15.60;99.90;;;;;;6312887;22;20082;-81
2022/10/13 07:41:36;;;;;;;122.00;76.57;;;15.70;99.90;;;;;;6322486;22;20007;-79
2022/10/13 07:44:02;;;;;;;108.55;64.95;;;15.80;99.90;;;;;;6309811;22;19994;-79
2022/10/13 07:46:28;;;;;;;110.70;66.07;;;15.80;99.90;;;;;;6309385;22;20018;-81
2022/10/13 07:48:54;;;;;;;107.20;65.35;;;15.90;99.90;;;;;;6309649;22;20404;-81
2022/10/13 07:51:20;;;;;;;110.07;65.20;;;15.90;99.90;;;;;;6309760;22;20027;-79
2022/10/13 07:53:47;;;;;;;109.43;67.40;;;15.90;99.90;;;;;;6309466;22;19999;-80
2022/10/13 07:56:14;;;;;;;112.65;69.72;;;16.00;99.90;;;;;;6282515;22;19995;-79
2022/10/13 07:58:42;;;;;;;110.13;65.60;;;16.00;99.90;;;;;;6282409;22;20305;-79
2022/10/13 08:01:09;;;;;;;104.47;65.93;;;16.10;99.90;;;;;;6309278;22;20312;-80
2022/10/13 08:03:35;;;;;;;101.15;63.97;;;16.10;99.90;;;;;;6309934;22;20018;-80
2022/10/13 08:06:03;;;;;;;100.70;64.75;;;16.10;99.90;;;;;;6282327;22;20460;-79
2022/10/13 08:08:30;;;;;;;94.13;61.80;;;16.20;99.90;;;;;;6309585;22;20053;-82
2022/10/13 08:11:08;;;;;;;98.20;62.05;;;16.10;99.90;;;;;;6309673;22;20072;-81
2022/10/13 08:13:34;;;;;;;91.05;61.10;;;16.20;99.90;;;;;;6309385;22;20062;-83
2022/10/13 08:16:00;;;;;;;98.75;65.68;;;16.30;99.90;;;;;;6309189;22;20019;-81
2022/10/13 08:18:27;;;;;;;100.55;64.63;;;16.30;99.90;;;;;;6282277;22;20047;-81
2022/10/13 08:20:53;;;;;;;99.65;65.28;;;16.30;99.90;;;;;;6309136;22;20026;-82
2022/10/13 08:23:19;;;;;;;105.85;67.47;;;16.30;99.90;;;;;;6308391;22;20022;-82
2022/10/13 08:25:45;;;;;;;103.28;69.43;;;16.30;99.90;;;;;;6281609;22;20277;-82
2022/10/13 08:28:19;;;;;;;110.85;69.18;;;16.40;99.90;;;;;;6309210;22;20072;-82
2022/10/13 08:30:45;;;;;;;118.97;73.95;;;16.40;99.90;;;;;;6309237;22;19995;-82
2022/10/13 08:33:11;;;;;;;112.10;70.53;;;16.40;99.90;;;;;;6281857;22;19995;-80
2022/10/13 08:35:38;;;;;;;106.68;70.82;;;16.40;99.90;;;;;;6309116;22;20018;-82
2022/10/13 08:38:04;;;;;;;116.47;75.07;;;16.50;99.90;;;;;;6281774;22;20002;-80
2022/10/13 08:40:29;;;;;;;121.93;77.63;;;16.50;99.90;;;;;;6308218;22;20020;-81
2022/10/13 08:42:56;;;;;;;120.38;78.82;;;16.50;99.90;;;;;;6309218;22;20083;-80
2022/10/13 08:45:26;;;;;;;128.38;81.28;;;16.50;99.90;;;;;;6309438;22;19998;-80
2022/10/13 08:48:12;;;;;;;126.50;81.47;;;16.60;99.90;;;;;;6309333;22;19992;-82
2022/10/13 08:50:41;;;;;;;125.88;83.72;;;16.60;99.90;;;;;;6280534;22;20413;-82
2022/10/13 08:53:27;;;;;;;144.65;90.80;;;16.60;99.90;;;;;;6309463;22;20006;-81
2022/10/13 08:56:20;;;;;;;130.32;83.20;;;16.70;99.90;;;;;;6308783;22;20400;-82
2022/10/13 08:58:48;;;;;;;124.15;80.35;;;16.80;99.90;;;;;;6309216;22;20025;-81
2022/10/13 09:01:30;;;;;;;124.82;77.63;;;16.90;99.90;;;;;;6308976;22;20003;-80
2022/10/13 09:04:21;;;;;;;129.15;80.63;;;17.00;99.90;;;;;;6281741;22;19995;-81
2022/10/13 09:06:55;;;;;;;130.80;77.15;;;17.10;99.90;;;;;;6281886;22;20000;-84
2022/10/13 09:09:21;;;;;;;119.85;76.05;;;17.10;99.90;;;;;;6281441;22;20002;-80
2022/10/13 09:11:49;;;;;;;111.95;72.35;;;17.30;99.90;;;;;;6308246;22;20003;-82
2022/10/13 09:14:26;;;;;;;114.43;72.82;;;17.40;99.90;;;;;;6281417;22;20005;-82
2022/10/13 09:16:54;;;;;;;118.28;71.93;;;17.50;99.90;;;;;;6309447;22;20428;-81
2022/10/13 09:19:23;;;;;;;122.38;72.35;;;17.50;99.90;;;;;;6281348;22;20366;-82
2022/10/13 09:21:57;;;;;;;107.55;70.70;;;17.50;99.90;;;;;;6308847;22;20006;-82
2022/10/13 09:24:25;;;;;;;123.38;74.53;;;17.60;99.90;;;;;;6281352;22;20475;-85
2022/10/13 09:27:05;;;;;;;114.75;69.28;;;17.60;99.90;;;;;;6280275;22;20354;-81
2022/10/13 09:29:31;;;;;;;122.30;74.15;;;17.70;99.90;;;;;;6279476;22;19999;-82
2022/10/13 09:32:19;;;;;;;122.45;73.68;;;17.80;99.90;;;;;;6307649;22;20010;-81
2022/10/13 09:34:46;;;;;;;117.47;69.28;;;17.80;99.90;;;;;;6307340;22;19991;-81
2022/10/13 09:37:24;;;;;;;116.50;72.43;;;17.90;99.90;;;;;;6307608;22;20467;-83
2022/10/13 09:40:11;;;;;;;127.05;75.35;;;18.10;99.90;;;;;;6280873;22;20044;-82
2022/10/13 09:42:38;;;;;;;122.15;72.57;;;18.30;99.90;;;;;;6312028;22;20030;-83
2022/10/13 09:45:16;;;;;;;112.32;70.78;;;18.40;99.90;;;;;;6339621;22;20029;-81
2022/10/13 09:47:56;;;;;;;119.25;70.65;;;18.60;99.90;;;;;;6340179;22;19995;-80
2022/10/13 09:50:31;;;;;;;114.90;72.47;;;18.80;99.90;;;;;;6340029;22;19991;-79
2022/10/13 09:53:16;;;;;;;112.95;68.03;;;18.80;99.90;;;;;;6339256;22;20022;-79
2022/10/13 09:55:42;;;;;;;107.95;69.90;;;19.00;99.90;;;;;;6312019;22;20026;-78
2022/10/13 09:58:29;;;;;;;99.57;67.10;;;19.10;99.90;;;;;;6312269;22;19991;-77
2022/10/13 10:00:56;;;;;;;112.32;68.97;;;19.20;99.90;;;;;;6339403;22;20438;-79
2022/10/13 10:03:36;;;;;;;108.32;72.82;;;19.30;99.90;;;;;;6339561;22;20079;-80
2022/10/13 10:06:06;;;;;;;113.18;71.15;;;19.30;99.90;;;;;;6338637;22;19987;-79
2022/10/13 10:09:04;;;;;;;110.80;71.90;;;19.40;99.90;;;;;;6339710;22;19990;-79
2022/10/13 10:11:33;;;;;;;116.07;70.50;;;19.40;99.90;;;;;;6310947;22;20548;-80
2022/10/13 10:14:12;;;;;;;111.93;73.00;;;19.40;99.90;;;;;;6311866;22;20037;-79
2022/10/13 10:16:45;;;;;;;99.15;68.93;;;19.60;99.90;;;;;;6339613;22;20361;-79
2022/10/13 10:19:36;;;;;;;115.32;73.13;;;19.90;99.90;;;;;;6312060;22;20025;-79
2022/10/13 10:22:21;;;;;;;120.40;80.63;;;;;;;;;;6339210;22;20003;-79
2022/10/13 10:25:20;;;;;;;111.72;73.90;;;20.30;99.90;;;;;;6339778;22;19995;-79
2022/10/13 10:27:49;;;;;;;112.95;73.60;;;20.40;99.90;;;;;;6339742;22;20065;-78
2022/10/13 10:30:18;;;;;;;115.07;74.82;;;20.70;99.90;;;;;;6339844;22;19986;-80
2022/10/13 10:32:47;;;;;;;98.03;64.82;;;20.70;99.90;;;;;;6339351;22;20477;-79
2022/10/13 10:35:17;;;;;;;102.13;66.88;;;21.20;99.90;;;;;;6339574;22;20396;-77
2022/10/13 10:38:04;;;;;;;100.63;68.40;;;21.30;99.90;;;;;;6339425;22;19991;-79
2022/10/13 10:40:51;;;;;;;101.15;67.85;;;21.30;99.90;;;;;;6339767;22;20420;-78
2022/10/13 10:43:23;;;;;;;97.07;67.47;;;21.40;99.90;;;;;;6339003;22;20077;-78
2022/10/13 10:45:49;;;;;;;;;;;;;;;;;;6311783;22;20029;-78
2022/10/13 10:48:18;;;;;;;92.60;64.88;;;;;;;;;;6339590;22;19894;-79
2022/10/13 10:50:44;;;;;;;99.45;65.90;;;21.10;99.90;;;;;;6339065;22;20400;-78
2022/10/13 10:53:32;;;;;;;97.43;65.07;;;21.00;99.90;;;;;;6339035;22;20285;-78
2022/10/13 10:56:28;;;;;;;89.88;63.42;;;20.90;99.90;;;;;;6339117;22;19998;-78
2022/10/13 10:59:22;;;;;;;88.38;60.13;;;21.00;99.90;;;;;;6326509;22;19998;-81
2022/10/13 11:02:06;;;;;;;89.20;56.83;;;;;;;;;;6338340;22;20312;-80
2022/10/13 11:04:47;;;;;;;88.25;57.78;;;;;;;;;;6338471;22;20018;-81
2022/10/13 11:07:22;;;;;;;82.47;55.65;;;;;;;;;;6340804;22;20002;-80
2022/10/13 11:09:49;;;;;;;89.53;60.55;;;;;;;;;;6339021;22;20069;-81
2022/10/13 11:12:21;;;;;;;92.65;59.75;;;;;;;;;;6341548;22;19991;-82
2022/10/13 11:14:47;;;;;;;86.93;58.10;;;;;;;;;;6340515;22;20479;-80
2022/10/13 11:17:18;;;;;;;78.53;56.03;;;;;;;;;;6341037;22;20437;-79
2022/10/13 11:19:46;;;;;;;85.13;57.47;;;;;;;;;;6313898;22;20044;-79
2022/10/13 11:22:20;;;;;;;89.20;59.05;;;;;;;;;;6341358;22;19999;-80
2022/10/13 11:24:49;;;;;;;78.15;54.65;;;22.00;99.90;;;;;;6313553;22;20001;-80
2022/10/13 11:27:14;;;;;;;87.57;57.72;;;21.70;99.90;;;;;;6313640;22;20022;-78
2022/10/13 11:29:43;;;;;;;76.43;53.13;;;21.80;99.90;;;;;;6341077;22;20400;-78
2022/10/13 11:32:29;;;;;;;70.90;48.72;;;21.90;99.90;;;;;;6341090;22;20048;-80
2022/10/13 11:35:01;;;;;;;68.03;47.00;;;;;;;;;;6341106;22;20404;-77
2022/10/13 11:37:47;;;;;;;68.40;50.85;;;;;;;;;;6340732;22;19994;-78
2022/10/13 11:40:24;;;;;;;65.68;46.25;;;;;;;;;;6340838;22;19991;-77
2022/10/13 11:42:50;;;;;;;66.25;46.55;;;;;;;;;;6341021;22;20077;-81
2022/10/13 11:45:41;;;;;;;61.90;45.08;;;22.30;99.90;;;;;;6313420;22;20017;-79
2022/10/13 11:48:15;;;;;;;74.72;46.15;;;22.30;99.90;;;;;;6268169;22;20132;-80
2022/10/13 11:51:12;;;;;;;73.03;48.80;;;22.20;99.90;;;;;;6340950;22;19998;-79
2022/10/13 11:54:06;;;;;;;79.47;54.20;;;22.10;99.90;;;;;;6341210;22;19998;-80
2022/10/13 11:56:35;;;;;;;72.95;49.58;;;22.20;99.90;;;;;;6312135;22;19995;-80
2022/10/13 11:59:01;;;;;;;69.28;50.42;;;22.10;99.90;;;;;;6313237;22;19995;-80
2022/10/13 12:01:27;;;;;;;66.60;49.20;;;;;;;;;;6313391;22;20006;-80
2022/10/13 12:03:53;;;;;;;68.68;48.50;;;;;;;;;;6340613;22;19995;-83
2022/10/13 12:06:32;;;;;;;69.60;49.20;;;22.20;99.90;;;;;;6340452;22;20422;-80
2022/10/13 12:09:20;;;;;;;67.10;48.15;;;22.10;99.90;;;;;;6340615;22;20020;-78
2022/10/13 12:11:54;;;;;;;76.13;52.15;;;22.00;99.90;;;;;;6312273;22;19999;-78
2022/10/13 12:14:22;;;;;;;79.50;51.28;;;21.90;99.90;;;;;;6339524;22;20391;-78
2022/10/13 12:16:56;;;;;;;75.20;51.00;;;21.90;99.90;;;;;;6340694;22;20051;-78
2022/10/13 12:19:25;;;;;;;89.45;52.80;;;21.90;99.90;;;;;;6340615;22;20013;-78
2022/10/13 12:21:54;;;;;;;86.07;52.65;;;22.00;99.90;;;;;;6340385;22;19995;-83
2022/10/13 12:24:24;;;;;;;73.60;50.22;;;;;;;;;;6340362;22;20426;-78
2022/10/13 12:26:50;;;;;;;71.53;49.85;;;;;;;;;;6340559;22;20036;-80
2022/10/13 12:29:17;;;;;;;75.65;51.20;;;;;;;;;;6340617;22;20430;-79
2022/10/13 12:31:44;;;;;;;82.88;52.92;;;;;;;;;;6340293;22;19994;-80
2022/10/13 12:34:19;;;;;;;77.35;50.63;;;22.40;99.90;;;;;;6340148;22;20026;-80
2022/10/13 12:37:13;;;;;;;69.43;48.58;;;22.10;99.90;;;;;;6339940;22;19987;-80
2022/10/13 12:39:39;;;;;;;64.97;43.67;;;22.00;99.90;;;;;;6319673;22;20002;-81
2022/10/13 12:42:07;;;;;;;70.15;46.22;;;;;;;;;;6312205;22;20311;-80